sensor_id;sensor_type;location;lat;lon;timestamp;pressure;altitude;pressure_sealevel;temperature;humidity
6194;BME280;3130;41.564;23.280;2023-07-24T00:01:09;61696.69;;;-140.28;100.00
6194;BME280;3130;41.564;23.280;2023-07-24T00:03:36;61696.69;;;-140.28;100.00
6194;BME280;3130;41.564;23.280;2023-07-24T00:06:05;61696.69;;;-140.28;100.00
6194;BME280;3130;41.564;23.280;2023-07-24T00:08:32;61696.69;;;-140.28;100.00
6194;BME280;3130;41.564;23.280;2023-07-24T00:11:00;61696.69;;;-140.28;100.00
6194;BME280;3130;41.564;23.280;2023-07-24T00:13:28;61696.69;;;-140.28;100.00
6194;BME280;3130;41.564;23.280;2023-07-24T00:15:57;61696.69;;;-140.28;100.00
6194;BME280;3130;41.564;23.280;2023-07-24T00:18:24;61696.69;;;-140.28;100.00
6194;BME280;3130;41.564;23.280;2023-07-24T00:20:51;61696.69;;;-140.28;100.00
6194;BME280;3130;41.564;23.280;2023-07-24T00:23:20;61696.69;;;-140.28;100.00
6194;BME280;3130;41.564;23.280;2023-07-24T00:25:48;61696.69;;;-140.28;100.00
6194;BME280;3130;41.564;23.280;2023-07-24T00:28:15;61696.69;;;-140.28;100.00
6194;BME280;3130;41.564;23.280;2023-07-24T00:30:42;61696.69;;;-140.28;100.00
6194;BME280;3130;41.564;23.280;2023-07-24T00:33:09;61696.69;;;-140.28;100.00
6194;BME280;3130;41.564;23.280;2023-07-24T00:35:37;61696.69;;;-140.28;100.00
6194;BME280;3130;41.564;23.280;2023-07-24T00:38:04;61696.69;;;-140.28;100.00
6194;BME280;3130;41.564;23.280;2023-07-24T00:40:32;61696.69;;;-140.28;100.00
6194;BME280;3130;41.564;23.280;2023-07-24T00:43:00;61696.69;;;-140.28;100.00
6194;BME280;3130;41.564;23.280;2023-07-24T00:45:27;61696.69;;;-140.28;100.00
6194;BME280;3130;41.564;23.280;2023-07-24T00:47:54;61696.69;;;-140.28;100.00
6194;BME280;3130;41.564;23.280;2023-07-24T00:50:23;61696.69;;;-140.28;100.00
6194;BME280;3130;41.564;23.280;2023-07-24T00:52:51;61696.69;;;-140.28;100.00
6194;BME280;3130;41.564;23.280;2023-07-24T00:55:19;61696.69;;;-140.28;100.00
6194;BME280;3130;41.564;23.280;2023-07-24T00:57:47;61696.69;;;-140.28;100.00
6194;BME280;3130;41.564;23.280;2023-07-24T01:00:16;61696.69;;;-140.28;100.00
6194;BME280;3130;41.564;23.280;2023-07-24T01:02:43;61696.69;;;-140.28;100.00
6194;BME280;3130;41.564;23.280;2023-07-24T01:05:13;61696.69;;;-140.28;100.00
6194;BME280;3130;41.564;23.280;2023-07-24T01:07:40;61696.69;;;-140.28;100.00
6194;BME280;3130;41.564;23.280;2023-07-24T01:10:08;61696.69;;;-140.28;100.00
6194;BME280;3130;41.564;23.280;2023-07-24T01:12:39;61696.69;;;-140.28;100.00
6194;BME280;3130;41.564;23.280;2023-07-24T01:15:16;61696.69;;;-140.28;100.00
6194;BME280;3130;41.564;23.280;2023-07-24T01:17:49;61696.69;;;-140.28;100.00
6194;BME280;3130;41.564;23.280;2023-07-24T01:20:18;61696.69;;;-140.28;100.00
6194;BME280;3130;41.564;23.280;2023-07-24T01:23:01;61696.69;;;-140.28;100.00
6194;BME280;3130;41.564;23.280;2023-07-24T01:25:32;61696.69;;;-140.28;100.00
6194;BME280;3130;41.564;23.280;2023-07-24T01:28:08;61696.69;;;-140.28;100.00
6194;BME280;3130;41.564;23.280;2023-07-24T01:30:35;61696.69;;;-140.28;100.00
6194;BME280;3130;41.564;23.280;2023-07-24T01:33:02;61696.69;;;-140.28;100.00
6194;BME280;3130;41.564;23.280;2023-07-24T01:35:30;61696.69;;;-140.28;100.00
6194;BME280;3130;41.564;23.280;2023-07-24T01:37:59;61696.69;;;-140.28;100.00
6194;BME280;3130;41.564;23.280;2023-07-24T01:40:27;61696.69;;;-140.28;100.00
6194;BME280;3130;41.564;23.280;2023-07-24T01:42:54;61696.69;;;-140.28;100.00
6194;BME280;3130;41.564;23.280;2023-07-24T01:45:22;61696.69;;;-140.28;100.00
6194;BME280;3130;41.564;23.280;2023-07-24T01:47:49;61696.69;;;-140.28;100.00
6194;BME280;3130;41.564;23.280;2023-07-24T01:50:17;61696.69;;;-140.28;100.00
6194;BME280;3130;41.564;23.280;2023-07-24T01:52:44;61696.69;;;-140.28;100.00
6194;BME280;3130;41.564;23.280;2023-07-24T01:55:11;61696.69;;;-140.28;100.00
6194;BME280;3130;41.564;23.280;2023-07-24T01:57:38;61696.69;;;-140.28;100.00
6194;BME280;3130;41.564;23.280;2023-07-24T02:00:06;61696.69;;;-140.28;100.00
6194;BME280;3130;41.564;23.280;2023-07-24T02:02:35;61696.69;;;-140.28;100.00
6194;BME280;3130;41.564;23.280;2023-07-24T02:05:02;61696.69;;;-140.28;100.00
6194;BME280;3130;41.564;23.280;2023-07-24T02:07:29;61696.69;;;-140.28;100.00
6194;BME280;3130;41.564;23.280;2023-07-24T02:09:57;61696.69;;;-140.28;100.00
6194;BME280;3130;41.564;23.280;2023-07-24T02:12:24;61696.69;;;-140.28;100.00
6194;BME280;3130;41.564;23.280;2023-07-24T02:14:52;61696.69;;;-140.28;100.00
6194;BME280;3130;41.564;23.280;2023-07-24T02:17:23;61696.69;;;-140.28;100.00
6194;BME280;3130;41.564;23.280;2023-07-24T02:19:52;61696.69;;;-140.28;100.00
6194;BME280;3130;41.564;23.280;2023-07-24T02:22:19;61696.69;;;-140.28;100.00
6194;BME280;3130;41.564;23.280;2023-07-24T02:24:46;61696.69;;;-140.28;100.00
6194;BME280;3130;41.564;23.280;2023-07-24T02:27:25;61696.69;;;-140.28;100.00
6194;BME280;3130;41.564;23.280;2023-07-24T02:29:53;61696.69;;;-140.28;100.00
6194;BME280;3130;41.564;23.280;2023-07-24T02:32:20;61696.69;;;-140.28;100.00
6194;BME280;3130;41.564;23.280;2023-07-24T02:34:49;61696.69;;;-140.28;100.00
6194;BME280;3130;41.564;23.280;2023-07-24T02:37:17;61696.69;;;-140.28;100.00
6194;BME280;3130;41.564;23.280;2023-07-24T02:39:45;61696.69;;;-140.28;100.00
6194;BME280;3130;41.564;23.280;2023-07-24T02:42:12;61696.69;;;-140.28;100.00
6194;BME280;3130;41.564;23.280;2023-07-24T02:44:39;61696.69;;;-140.28;100.00
6194;BME280;3130;41.564;23.280;2023-07-24T02:47:06;61696.69;;;-140.28;100.00
6194;BME280;3130;41.564;23.280;2023-07-24T02:49:33;61696.69;;;-140.28;100.00
6194;BME280;3130;41.564;23.280;2023-07-24T02:52:00;61696.69;;;-140.28;100.00
6194;BME280;3130;41.564;23.280;2023-07-24T02:54:29;61696.69;;;-140.28;100.00
6194;BME280;3130;41.564;23.280;2023-07-24T02:56:56;61696.69;;;-140.28;100.00
6194;BME280;3130;41.564;23.280;2023-07-24T02:59:24;61696.69;;;-140.28;100.00
6194;BME280;3130;41.564;23.280;2023-07-24T03:01:51;61696.69;;;-140.28;100.00
6194;BME280;3130;41.564;23.280;2023-07-24T03:04:18;61696.69;;;-140.28;100.00
6194;BME280;3130;41.564;23.280;2023-07-24T03:06:45;61696.69;;;-140.28;100.00
6194;BME280;3130;41.564;23.280;2023-07-24T03:09:12;61696.69;;;-140.28;100.00
6194;BME280;3130;41.564;23.280;2023-07-24T03:11:41;61696.69;;;-140.28;100.00
6194;BME280;3130;41.564;23.280;2023-07-24T03:14:08;61696.69;;;-140.28;100.00
6194;BME280;3130;41.564;23.280;2023-07-24T03:16:35;61696.69;;;-140.28;100.00
6194;BME280;3130;41.564;23.280;2023-07-24T03:19:02;61696.69;;;-140.28;100.00
6194;BME280;3130;41.564;23.280;2023-07-24T03:21:29;61696.69;;;-140.28;100.00
6194;BME280;3130;41.564;23.280;2023-07-24T03:23:57;61696.69;;;-140.28;100.00
6194;BME280;3130;41.564;23.280;2023-07-24T03:26:24;61696.69;;;-140.28;100.00
6194;BME280;3130;41.564;23.280;2023-07-24T03:28:52;61696.69;;;-140.28;100.00
6194;BME280;3130;41.564;23.280;2023-07-24T03:31:19;61696.69;;;-140.28;100.00
6194;BME280;3130;41.564;23.280;2023-07-24T03:33:47;98869.44;;;20.80;nan
6194;BME280;3130;41.564;23.280;2023-07-24T03:36:14;98960.91;;;21.36;nan
6194;BME280;3130;41.564;23.280;2023-07-24T03:38:41;98872.78;;;20.73;nan
6194;BME280;3130;41.564;23.280;2023-07-24T03:41:08;98852.19;;;20.54;nan
6194;BME280;3130;41.564;23.280;2023-07-24T03:43:35;98961.50;;;21.14;nan
6194;BME280;3130;41.564;23.280;2023-07-24T03:46:04;98909.19;;;20.82;nan
6194;BME280;3130;41.564;23.280;2023-07-24T03:48:31;98924.41;;;20.95;nan
6194;BME280;3130;41.564;23.280;2023-07-24T03:51:00;98870.63;;;20.68;nan
6194;BME280;3130;41.564;23.280;2023-07-24T03:53:28;98957.47;;;21.28;nan
6194;BME280;3130;41.564;23.280;2023-07-24T03:55:55;98864.63;;;20.76;nan
6194;BME280;3130;41.564;23.280;2023-07-24T03:58:23;98917.94;;;21.07;nan
6194;BME280;3130;41.564;23.280;2023-07-24T04:00:49;98901.97;;;21.10;nan
6194;BME280;3130;41.564;23.280;2023-07-24T04:03:18;98964.66;;;21.33;nan
6194;BME280;3130;41.564;23.280;2023-07-24T04:05:45;98835.66;;;20.71;nan
6194;BME280;3130;41.564;23.280;2023-07-24T04:08:16;98760.03;;;20.29;nan
6194;BME280;3130;41.564;23.280;2023-07-24T04:11:00;98887.81;;;21.12;nan
6194;BME280;3130;41.564;23.280;2023-07-24T04:13:45;98779.00;;;20.47;nan
6194;BME280;3130;41.564;23.280;2023-07-24T04:16:33;98966.59;;;21.73;nan
6194;BME280;3130;41.564;23.280;2023-07-24T04:19:10;98926.78;;;21.63;nan
6194;BME280;3130;41.564;23.280;2023-07-24T04:21:57;98761.72;;;20.38;nan
6194;BME280;3130;41.564;23.280;2023-07-24T04:24:37;98752.75;;;20.33;nan
6194;BME280;3130;41.564;23.280;2023-07-24T04:27:05;98908.44;;;21.47;nan
6194;BME280;3130;41.564;23.280;2023-07-24T04:29:33;98931.22;;;21.78;nan
6194;BME280;3130;41.564;23.280;2023-07-24T04:32:06;98933.50;;;21.73;nan
6194;BME280;3130;41.564;23.280;2023-07-24T04:34:43;98986.75;;;22.04;nan
6194;BME280;3130;41.564;23.280;2023-07-24T04:37:27;98772.75;;;20.74;nan
6194;BME280;3130;41.564;23.280;2023-07-24T04:39:59;98796.31;;;20.90;nan
6194;BME280;3130;41.564;23.280;2023-07-24T04:43:05;98764.19;;;20.81;nan
6194;BME280;3130;41.564;23.280;2023-07-24T04:45:35;98986.44;;;22.23;nan
6194;BME280;3130;41.564;23.280;2023-07-24T04:48:08;98872.28;;;21.76;nan
6194;BME280;3130;41.564;23.280;2023-07-24T04:50:40;98855.16;;;21.89;nan
6194;BME280;3130;41.564;23.280;2023-07-24T04:53:08;98910.34;;;22.42;nan
6194;BME280;3130;41.564;23.280;2023-07-24T04:55:35;98960.69;;;22.98;nan
6194;BME280;3130;41.564;23.280;2023-07-24T04:58:10;98793.28;;;22.06;nan
6194;BME280;3130;41.564;23.280;2023-07-24T05:01:02;98968.22;;;23.01;nan
6194;BME280;3130;41.564;23.280;2023-07-24T05:03:45;98988.34;;;23.09;nan
6194;BME280;3130;41.564;23.280;2023-07-24T05:06:29;98977.16;;;23.23;nan
6194;BME280;3130;41.564;23.280;2023-07-24T05:09:00;98866.59;;;22.82;nan
6194;BME280;3130;41.564;23.280;2023-07-24T05:11:30;98896.34;;;22.89;nan
6194;BME280;3130;41.564;23.280;2023-07-24T05:13:58;98958.81;;;23.31;nan
6194;BME280;3130;41.564;23.280;2023-07-24T05:16:25;98979.63;;;23.62;nan
6194;BME280;3130;41.564;23.280;2023-07-24T05:18:55;98888.72;;;23.18;nan
6194;BME280;3130;41.564;23.280;2023-07-24T05:21:24;98795.66;;;22.85;nan
6194;BME280;3130;41.564;23.280;2023-07-24T05:23:51;98958.59;;;24.01;nan
6194;BME280;3130;41.564;23.280;2023-07-24T05:26:19;98903.88;;;23.83;nan
6194;BME280;3130;41.564;23.280;2023-07-24T05:28:47;98950.25;;;24.20;nan
6194;BME280;3130;41.564;23.280;2023-07-24T05:31:15;98980.22;;;24.48;nan
6194;BME280;3130;41.564;23.280;2023-07-24T05:33:42;98978.50;;;24.54;nan
6194;BME280;3130;41.564;23.280;2023-07-24T05:36:09;98955.78;;;24.47;nan
6194;BME280;3130;41.564;23.280;2023-07-24T05:38:38;98973.03;;;24.78;nan
6194;BME280;3130;41.564;23.280;2023-07-24T05:41:05;98977.84;;;24.89;nan
6194;BME280;3130;41.564;23.280;2023-07-24T05:43:32;98961.72;;;24.92;nan
6194;BME280;3130;41.564;23.280;2023-07-24T05:46:00;98935.59;;;24.84;nan
6194;BME280;3130;41.564;23.280;2023-07-24T05:48:28;98904.53;;;24.73;nan
6194;BME280;3130;41.564;23.280;2023-07-24T05:50:55;98850.63;;;24.42;nan
6194;BME280;3130;41.564;23.280;2023-07-24T05:53:23;98967.09;;;25.28;nan
6194;BME280;3130;41.564;23.280;2023-07-24T05:55:58;98979.03;;;25.45;nan
6194;BME280;3130;41.564;23.280;2023-07-24T05:58:32;98879.75;;;24.90;nan
6194;BME280;3130;41.564;23.280;2023-07-24T06:01:00;98854.97;;;24.93;nan
6194;BME280;3130;41.564;23.280;2023-07-24T06:03:28;98982.13;;;25.83;nan
6194;BME280;3130;41.564;23.280;2023-07-24T06:05:55;98907.81;;;25.54;nan
6194;BME280;3130;41.564;23.280;2023-07-24T06:08:23;98975.53;;;26.08;nan
6194;BME280;3130;41.564;23.280;2023-07-24T06:10:51;98951.59;;;26.03;nan
6194;BME280;3130;41.564;23.280;2023-07-24T06:13:20;98972.78;;;26.16;nan
6194;BME280;3130;41.564;23.280;2023-07-24T06:15:48;98948.97;;;26.24;nan
6194;BME280;3130;41.564;23.280;2023-07-24T06:18:16;98917.56;;;26.16;nan
6194;BME280;3130;41.564;23.280;2023-07-24T06:20:44;98965.78;;;26.71;nan
6194;BME280;3130;41.564;23.280;2023-07-24T06:23:14;98814.19;;;25.88;nan
6194;BME280;3130;41.564;23.280;2023-07-24T06:25:42;98887.41;;;26.40;nan
6194;BME280;3130;41.564;23.280;2023-07-24T06:28:10;98833.69;;;26.28;nan
6194;BME280;3130;41.564;23.280;2023-07-24T06:30:40;98783.59;;;26.08;nan
6194;BME280;3130;41.564;23.280;2023-07-24T06:33:07;98812.09;;;26.32;nan
6194;BME280;3130;41.564;23.280;2023-07-24T06:35:35;98907.63;;;27.00;nan
6194;BME280;3130;41.564;23.280;2023-07-24T06:38:02;98968.06;;;27.55;nan
6194;BME280;3130;41.564;23.280;2023-07-24T06:40:30;98824.69;;;26.77;nan
6194;BME280;3130;41.564;23.280;2023-07-24T06:42:58;98968.59;;;27.78;nan
6194;BME280;3130;41.564;23.280;2023-07-24T06:45:26;98913.00;;;27.67;nan
6194;BME280;3130;41.564;23.280;2023-07-24T06:47:55;98960.53;;;28.18;nan
6194;BME280;3130;41.564;23.280;2023-07-24T06:50:22;98906.34;;;27.90;nan
6194;BME280;3130;41.564;23.280;2023-07-24T06:52:50;98956.75;;;28.34;nan
6194;BME280;3130;41.564;23.280;2023-07-24T06:55:19;98965.28;;;28.49;nan
6194;BME280;3130;41.564;23.280;2023-07-24T06:57:47;98967.88;;;28.62;nan
6194;BME280;3130;41.564;23.280;2023-07-24T07:00:15;98952.88;;;28.69;nan
6194;BME280;3130;41.564;23.280;2023-07-24T07:02:42;98906.59;;;28.47;nan
6194;BME280;3130;41.564;23.280;2023-07-24T07:05:11;98952.25;;;28.86;nan
6194;BME280;3130;41.564;23.280;2023-07-24T07:07:38;98941.06;;;28.90;nan
6194;BME280;3130;41.564;23.280;2023-07-24T07:10:07;98971.66;;;29.24;nan
6194;BME280;3130;41.564;23.280;2023-07-24T07:12:34;98962.88;;;29.36;nan
6194;BME280;3130;41.564;23.280;2023-07-24T07:15:01;98942.34;;;29.38;nan
6194;BME280;3130;41.564;23.280;2023-07-24T07:17:29;98970.31;;;29.65;nan
6194;BME280;3130;41.564;23.280;2023-07-24T07:19:56;98967.16;;;29.81;nan
6194;BME280;3130;41.564;23.280;2023-07-24T07:22:25;98844.41;;;29.27;nan
6194;BME280;3130;41.564;23.280;2023-07-24T07:24:53;98942.97;;;30.15;nan
6194;BME280;3130;41.564;23.280;2023-07-24T07:27:20;98948.06;;;30.41;nan
6194;BME280;3130;41.564;23.280;2023-07-24T07:29:47;98952.94;;;30.44;nan
6194;BME280;3130;41.564;23.280;2023-07-24T07:32:15;98942.84;;;30.59;nan
6194;BME280;3130;41.564;23.280;2023-07-24T07:34:42;98878.25;;;30.35;nan
6194;BME280;3130;41.564;23.280;2023-07-24T07:37:10;98880.16;;;30.53;nan
6194;BME280;3130;41.564;23.280;2023-07-24T07:39:38;98896.38;;;30.81;nan
6194;BME280;3130;41.564;23.280;2023-07-24T07:42:06;98943.59;;;31.26;nan
6194;BME280;3130;41.564;23.280;2023-07-24T07:44:33;98944.59;;;31.43;nan
6194;BME280;3130;41.564;23.280;2023-07-24T07:47:00;98858.56;;;31.09;nan
6194;BME280;3130;41.564;23.280;2023-07-24T07:49:27;98895.47;;;31.40;nan
6194;BME280;3130;41.564;23.280;2023-07-24T07:51:55;98936.13;;;31.70;nan
6194;BME280;3130;41.564;23.280;2023-07-24T07:54:22;98837.66;;;31.31;nan
6194;BME280;3130;41.564;23.280;2023-07-24T07:56:51;98933.34;;;32.06;nan
6194;BME280;3130;41.564;23.280;2023-07-24T07:59:19;98883.31;;;31.80;nan
6194;BME280;3130;41.564;23.280;2023-07-24T08:01:46;98886.41;;;32.18;nan
6194;BME280;3130;41.564;23.280;2023-07-24T08:04:13;98932.16;;;32.77;nan
6194;BME280;3130;41.564;23.280;2023-07-24T08:06:40;98931.19;;;33.06;nan
6194;BME280;3130;41.564;23.280;2023-07-24T08:09:07;98871.34;;;33.03;nan
6194;BME280;3130;41.564;23.280;2023-07-24T08:11:34;98937.34;;;34.46;nan
6194;BME280;3130;41.564;23.280;2023-07-24T08:14:03;98926.69;;;36.85;nan
6194;BME280;3130;41.564;23.280;2023-07-24T08:16:30;98912.69;;;37.95;nan
6194;BME280;3130;41.564;23.280;2023-07-24T08:18:58;98840.81;;;36.81;nan
6194;BME280;3130;41.564;23.280;2023-07-24T08:21:25;98921.03;;;36.09;nan
6194;BME280;3130;41.564;23.280;2023-07-24T08:23:52;98906.94;;;35.39;nan
6194;BME280;3130;41.564;23.280;2023-07-24T08:26:19;98926.69;;;35.17;nan
6194;BME280;3130;41.564;23.280;2023-07-24T08:28:47;98920.56;;;34.78;nan
6194;BME280;3130;41.564;23.280;2023-07-24T08:31:15;98866.72;;;34.27;nan
6194;BME280;3130;41.564;23.280;2023-07-24T08:33:42;98916.94;;;34.35;nan
6194;BME280;3130;41.564;23.280;2023-07-24T08:36:10;98911.88;;;34.17;nan
6194;BME280;3130;41.564;23.280;2023-07-24T08:38:38;98916.00;;;33.97;nan
6194;BME280;3130;41.564;23.280;2023-07-24T08:41:07;98829.34;;;33.28;nan
6194;BME280;3130;41.564;23.280;2023-07-24T08:43:36;98798.72;;;33.14;nan
6194;BME280;3130;41.564;23.280;2023-07-24T08:46:04;98801.59;;;33.24;nan
6194;BME280;3130;41.564;23.280;2023-07-24T08:48:34;98905.81;;;33.94;nan
6194;BME280;3130;41.564;23.280;2023-07-24T08:51:03;98758.66;;;33.04;nan
6194;BME280;3130;41.564;23.280;2023-07-24T08:53:32;98751.72;;;33.03;nan
6194;BME280;3130;41.564;23.280;2023-07-24T08:56:02;98895.84;;;34.01;nan
6194;BME280;3130;41.564;23.280;2023-07-24T08:58:29;98898.09;;;33.92;nan
6194;BME280;3130;41.564;23.280;2023-07-24T09:00:57;98895.38;;;33.76;nan
6194;BME280;3130;41.564;23.280;2023-07-24T09:03:24;98853.53;;;33.43;nan
6194;BME280;3130;41.564;23.280;2023-07-24T09:05:53;98886.75;;;33.69;nan
6194;BME280;3130;41.564;23.280;2023-07-24T09:08:28;98888.44;;;33.75;nan
6194;BME280;3130;41.564;23.280;2023-07-24T09:10:56;98870.31;;;33.72;nan
6194;BME280;3130;41.564;23.280;2023-07-24T09:13:24;98856.44;;;33.70;nan
6194;BME280;3130;41.564;23.280;2023-07-24T09:15:51;98782.50;;;33.27;nan
6194;BME280;3130;41.564;23.280;2023-07-24T09:18:20;98808.47;;;33.53;nan
6194;BME280;3130;41.564;23.280;2023-07-24T09:20:47;98871.72;;;34.07;nan
6194;BME280;3130;41.564;23.280;2023-07-24T09:23:26;98860.34;;;34.11;nan
6194;BME280;3130;41.564;23.280;2023-07-24T09:25:53;98856.72;;;34.17;nan
6194;BME280;3130;41.564;23.280;2023-07-24T09:28:21;98883.03;;;34.47;nan
6194;BME280;3130;41.564;23.280;2023-07-24T09:30:52;98881.63;;;34.44;nan
6194;BME280;3130;41.564;23.280;2023-07-24T09:33:21;98874.16;;;34.41;nan
6194;BME280;3130;41.564;23.280;2023-07-24T09:35:57;98823.97;;;34.17;nan
6194;BME280;3130;41.564;23.280;2023-07-24T09:38:26;98772.72;;;33.94;nan
6194;BME280;3130;41.564;23.280;2023-07-24T09:40:53;98857.97;;;34.48;nan
6194;BME280;3130;41.564;23.280;2023-07-24T09:43:23;98851.66;;;34.54;nan
6194;BME280;3130;41.564;23.280;2023-07-24T09:45:52;98844.63;;;34.64;nan
6194;BME280;3130;41.564;23.280;2023-07-24T09:48:21;98841.06;;;34.75;nan
6194;BME280;3130;41.564;23.280;2023-07-24T09:50:53;98715.91;;;34.05;nan
6194;BME280;3130;41.564;23.280;2023-07-24T09:53:24;98758.94;;;34.13;nan
6194;BME280;3130;41.564;23.280;2023-07-24T09:56:02;98817.50;;;34.67;nan
6194;BME280;3130;41.564;23.280;2023-07-24T09:58:30;98832.06;;;34.81;nan
6194;BME280;3130;41.564;23.280;2023-07-24T10:01:00;98815.50;;;34.79;nan
6194;BME280;3130;41.564;23.280;2023-07-24T10:03:29;98702.44;;;34.11;nan
6194;BME280;3130;41.564;23.280;2023-07-24T10:05:57;98815.75;;;34.99;nan
6194;BME280;3130;41.564;23.280;2023-07-24T10:08:24;98815.09;;;35.09;nan
6194;BME280;3130;41.564;23.280;2023-07-24T10:10:52;98804.59;;;35.02;nan
6194;BME280;3130;41.564;23.280;2023-07-24T10:13:21;98800.50;;;34.95;nan
6194;BME280;3130;41.564;23.280;2023-07-24T10:15:49;98791.25;;;35.02;nan
6194;BME280;3130;41.564;23.280;2023-07-24T10:18:17;98766.13;;;34.98;nan
6194;BME280;3130;41.564;23.280;2023-07-24T10:20:44;98781.66;;;35.22;nan
6194;BME280;3130;41.564;23.280;2023-07-24T10:23:16;98774.50;;;35.28;nan
6194;BME280;3130;41.564;23.280;2023-07-24T10:25:45;98764.75;;;35.17;nan
6194;BME280;3130;41.564;23.280;2023-07-24T10:28:12;98753.00;;;35.13;nan
6194;BME280;3130;41.564;23.280;2023-07-24T10:30:43;98779.97;;;35.43;nan
6194;BME280;3130;41.564;23.280;2023-07-24T10:33:12;98708.84;;;35.01;nan
6194;BME280;3130;41.564;23.280;2023-07-24T10:35:41;98780.03;;;35.53;nan
6194;BME280;3130;41.564;23.280;2023-07-24T10:38:09;98775.97;;;35.45;nan
6194;BME280;3130;41.564;23.280;2023-07-24T10:40:36;98752.31;;;35.22;nan
6194;BME280;3130;41.564;23.280;2023-07-24T10:43:07;98763.81;;;35.54;nan
6194;BME280;3130;41.564;23.280;2023-07-24T10:45:39;98713.47;;;35.36;nan
6194;BME280;3130;41.564;23.280;2023-07-24T10:48:08;98714.03;;;35.38;nan
6194;BME280;3130;41.564;23.280;2023-07-24T10:50:38;98692.97;;;35.42;nan
6194;BME280;3130;41.564;23.280;2023-07-24T10:53:05;98743.22;;;35.86;nan
6194;BME280;3130;41.564;23.280;2023-07-24T10:55:33;98740.38;;;35.98;nan
6194;BME280;3130;41.564;23.280;2023-07-24T10:58:00;98737.75;;;36.03;nan
6194;BME280;3130;41.564;23.280;2023-07-24T11:00:27;98721.19;;;36.01;nan
6194;BME280;3130;41.564;23.280;2023-07-24T11:02:55;98738.91;;;36.17;nan
6194;BME280;3130;41.564;23.280;2023-07-24T11:05:23;98733.81;;;36.15;nan
6194;BME280;3130;41.564;23.280;2023-07-24T11:07:51;98652.88;;;35.68;nan
6194;BME280;3130;41.564;23.280;2023-07-24T11:10:19;98717.00;;;36.20;nan
6194;BME280;3130;41.564;23.280;2023-07-24T11:12:46;98713.78;;;36.13;nan
6194;BME280;3130;41.564;23.280;2023-07-24T11:15:14;98714.59;;;36.18;nan
6194;BME280;3130;41.564;23.280;2023-07-24T11:17:41;98718.41;;;36.27;nan
6194;BME280;3130;41.564;23.280;2023-07-24T11:20:10;98640.97;;;35.91;nan
6194;BME280;3130;41.564;23.280;2023-07-24T11:22:42;98655.78;;;36.13;nan
6194;BME280;3130;41.564;23.280;2023-07-24T11:25:10;98703.81;;;36.49;nan
6194;BME280;3130;41.564;23.280;2023-07-24T11:27:39;98705.88;;;36.42;nan
6194;BME280;3130;41.564;23.280;2023-07-24T11:30:08;98651.31;;;35.72;nan
6194;BME280;3130;41.564;23.280;2023-07-24T11:32:35;98689.97;;;36.06;nan
6194;BME280;3130;41.564;23.280;2023-07-24T11:35:02;98690.25;;;36.10;nan
6194;BME280;3130;41.564;23.280;2023-07-24T11:37:30;98683.91;;;36.25;nan
6194;BME280;3130;41.564;23.280;2023-07-24T11:40:00;98682.28;;;36.24;nan
6194;BME280;3130;41.564;23.280;2023-07-24T11:42:30;98663.84;;;36.18;nan
6194;BME280;3130;41.564;23.280;2023-07-24T11:45:00;98551.13;;;35.60;nan
6194;BME280;3130;41.564;23.280;2023-07-24T11:47:28;98665.84;;;36.47;nan
6194;BME280;3130;41.564;23.280;2023-07-24T11:49:57;98675.00;;;36.66;nan
6194;BME280;3130;41.564;23.280;2023-07-24T11:52:25;98665.34;;;36.65;nan
6194;BME280;3130;41.564;23.280;2023-07-24T11:54:59;98662.41;;;36.67;nan
6194;BME280;3130;41.564;23.280;2023-07-24T11:57:29;98658.41;;;36.74;nan
6194;BME280;3130;41.564;23.280;2023-07-24T11:59:56;98594.75;;;36.46;nan
6194;BME280;3130;41.564;23.280;2023-07-24T12:02:26;98655.28;;;37.02;nan
6194;BME280;3130;41.564;23.280;2023-07-24T12:04:55;98663.56;;;37.11;nan
6194;BME280;3130;41.564;23.280;2023-07-24T12:07:28;98634.38;;;36.89;nan
6194;BME280;3130;41.564;23.280;2023-07-24T12:09:57;98598.16;;;36.27;nan
6194;BME280;3130;41.564;23.280;2023-07-24T12:12:25;98648.78;;;36.73;nan
6194;BME280;3130;41.564;23.280;2023-07-24T12:14:52;98648.56;;;36.90;nan
6194;BME280;3130;41.564;23.280;2023-07-24T12:17:19;98639.75;;;36.89;nan
6194;BME280;3130;41.564;23.280;2023-07-24T12:19:46;98656.34;;;37.01;nan
6194;BME280;3130;41.564;23.280;2023-07-24T12:22:14;98645.66;;;37.01;nan
6194;BME280;3130;41.564;23.280;2023-07-24T12:24:41;98632.28;;;37.06;nan
6194;BME280;3130;41.564;23.280;2023-07-24T12:27:08;98581.69;;;36.75;nan
6194;BME280;3130;41.564;23.280;2023-07-24T12:29:37;98609.53;;;36.94;nan
6194;BME280;3130;41.564;23.280;2023-07-24T12:32:05;98637.34;;;36.93;nan
6194;BME280;3130;41.564;23.280;2023-07-24T12:34:32;98604.97;;;36.89;nan
6194;BME280;3130;41.564;23.280;2023-07-24T12:36:59;98610.59;;;37.08;nan
6194;BME280;3130;41.564;23.280;2023-07-24T12:39:26;98487.00;;;36.41;nan
6194;BME280;3130;41.564;23.280;2023-07-24T12:41:53;98606.28;;;37.17;nan
6194;BME280;3130;41.564;23.280;2023-07-24T12:44:20;98572.88;;;37.09;nan
6194;BME280;3130;41.564;23.280;2023-07-24T12:46:48;98602.56;;;37.18;nan
6194;BME280;3130;41.564;23.280;2023-07-24T12:49:15;98598.03;;;37.23;nan
6194;BME280;3130;41.564;23.280;2023-07-24T12:51:42;98603.63;;;37.27;nan
6194;BME280;3130;41.564;23.280;2023-07-24T12:54:09;98598.28;;;37.22;nan
6194;BME280;3130;41.564;23.280;2023-07-24T12:56:36;98590.78;;;37.24;nan
6194;BME280;3130;41.564;23.280;2023-07-24T12:59:03;98587.56;;;37.27;nan
6194;BME280;3130;41.564;23.280;2023-07-24T13:01:30;98588.91;;;37.14;nan
6194;BME280;3130;41.564;23.280;2023-07-24T13:03:59;98582.25;;;37.12;nan
6194;BME280;3130;41.564;23.280;2023-07-24T13:06:26;98588.66;;;37.11;nan
6194;BME280;3130;41.564;23.280;2023-07-24T13:08:53;98583.06;;;37.02;nan
6194;BME280;3130;41.564;23.280;2023-07-24T13:11:20;98580.63;;;37.01;nan
6194;BME280;3130;41.564;23.280;2023-07-24T13:13:47;98484.84;;;36.38;nan
6194;BME280;3130;41.564;23.280;2023-07-24T13:16:15;98560.84;;;36.92;nan
6194;BME280;3130;41.564;23.280;2023-07-24T13:18:43;98542.38;;;36.95;nan
6194;BME280;3130;41.564;23.280;2023-07-24T13:21:11;98559.22;;;37.06;nan
6194;BME280;3130;41.564;23.280;2023-07-24T13:23:39;98553.31;;;36.89;nan
6194;BME280;3130;41.564;23.280;2023-07-24T13:26:07;98531.41;;;36.72;nan